Pagrindinis puslapis
METAR-TAF:

METAR-TAF

Oro uostai :

Santa Klara, Kuba

platuma: 22-29-32N, ilguma: 079-56-37W, Aukštis: 103 m

Dabartinis oras

Ataskaita buvo paskelbta 1 valandą ir 10 minutes, ne 11:51 UTC
Vėjas 1 kt nuo kintamojo kryptimis
Temperatūra 16°C
Drėgmė 94%
Slėgis 1019 hPa
Matomumas: 8000 m
Su prošvaistėmis ne aukštis 2000 ft

METAR: MUSC 211151Z VRB01KT 8000 BKN020 16/15 Q1019

Laikas: 08:01 (13:01 UTC)

Prognozė

Ataskaita buvo paskelbta 2 valandos ir 1 minutes, ne 11:00 UTC
Prognozė galioja nuo 21 metu 12 UTC su 22 metu 12 UTC
Vėjas 3 kt nuo kintamojo kryptimis
Matomumas: 9000 m
Išsisklaidę debesys ne aukštis 2000 ft
Tapsmas
nuo 21 metu 15 UTC su 21 metu 17 UTC
Vėjas 10 kt iš Rytų/Šiaurės Rytų
Tapsmas
nuo 22 metu 01 UTC su 22 metu 03 UTC
Vėjas 3 kt nuo kintamojo kryptimis

TAF: MUSC 211100Z 2112/2212 VRB03KT 9000 SCT020 BECMG 2115/2117 07010KT BECMG 2201/2203 VRB03KT

Orai ataskaitas ir orų prognozės (METAR, TAF).

turimą stotys yra geltonos ir raudonos taškus žemėlapyje.

Perkelti pele per norėdami pamatyti stoties vardą.

Tada spustelėkite, norėdami matyti oro stebėjimo ir prognozės.

Norėdami pakeisti žemėlapį: spustelėkite ant žalios mygtukų su juodo kryžiaus žemyn,; žalią mygtuką su brūkšneliu, jei norite nutolinti; arba žalių rodyklių gretimoms žemėlapius.


METAR-TAF: